Flight Track Log - Related Links

Times and Time Zones

All times are in EST time to prevent confusion due to time zone crossing. See the AIP5014 flight status page for this flight to view local times or setup timezone preferences in your user account.

Time Position Orientation Groundspeed Altitude Reporting Facility
EST Latitude Longitude Course Direction KTS MPH feet Rate Location/Type
Sat 03:09:10 AM 45.8444 -108.6878 287° West 159 183 7,500  Level Salt Lake Center
Sat 03:10:11 AM 45.8603 -108.7539 289° West 163 188 8,900 1,388 Climbing Salt Lake Center
Sat 03:11:11 AM 45.8736 -108.8158 287° West 164 189 10,300 1,339 Climbing Salt Lake Center
Sat 03:12:12 AM 45.8869 -108.8775 287° West 164 189 11,600 1,289 Climbing Salt Lake Center
Sat 03:13:00 AM 45.9053 -108.9913 287° West  Level FlightAware Approximate
Sat 03:13:12 AM 45.9003 -108.9397 287° West 165 190 12,900  Level Salt Lake Center
Sat 03:14:00 AM 45.9214 -109.0660 287° West  Level FlightAware Approximate
Sat 03:14:12 AM 45.9131 -109.0025 286° West 166 191 14,100  Level Salt Lake Center
Sat 03:15:13 AM 45.9289 -109.0644 290° West 156 180 15,500 893 Climbing Salt Lake Center
Sat 03:16:13 AM 45.9400 -109.1206 286° West 150 173 15,900 248 Climbing Salt Lake Center
Sat 03:17:14 AM 45.9536 -109.1867 287° West 171 197 16,000 50 Climbing Salt Lake Center
Sat 03:18:14 AM 45.9697 -109.2583 288° West 188 216 16,000  Level Salt Lake Center
Sat 03:19:15 AM 45.9856 -109.3306 288° West 193 222 16,000  Level Salt Lake Center
Sat 03:20:15 AM 46.0031 -109.4089 288° West 192 221 16,000 -50 Level Salt Lake Center
Sat 03:21:15 AM 46.0208 -109.4803 290° West 192 221 15,900 -50 Descending Salt Lake Center
Sat 03:22:16 AM 46.0375 -109.5519 289° West 191 220 15,900 50 Level Salt Lake Center
Sat 03:23:16 AM 46.0519 -109.6250 286° West 190 219 16,000 50 Climbing Salt Lake Center
Sat 03:24:16 AM 46.0686 -109.6975 288° West 193 222 16,000  Level Salt Lake Center
Sat 03:25:17 AM 46.0836 -109.7767 285° West 191 220 16,000  Level Salt Lake Center
Sat 03:26:17 AM 46.0969 -109.8369 288° West 192 221 16,000 -50 Level Salt Lake Center
Sat 03:27:17 AM 46.1103 -109.9122 284° West 193 222 15,900 -50 Descending Salt Lake Center
Sat 03:28:18 AM 46.1275 -109.9831 289° West 191 220 15,900 50 Level Salt Lake Center
Sat 03:29:18 AM 46.1450 -110.0717 286° West 191 220 16,000 50 Climbing Salt Lake Center
Sat 03:30:18 AM 46.1572 -110.1436 284° West 188 216 16,000  Level Salt Lake Center
Sat 03:31:19 AM 46.1733 -110.2144 288° West 188 216 16,000 99 Level Salt Lake Center
Sat 03:32:19 AM 46.1886 -110.2861 287° West 187 215 16,200  Climbing Salt Lake Center
Sat 03:33:19 AM 46.2056 -110.3558 289° West 186 214 16,000 -149 Descending Salt Lake Center
Sat 03:34:20 AM 46.2197 -110.4319 285° West 190 219 15,900  Descending Salt Lake Center
Sat 03:35:20 AM 46.2333 -110.5064 285° West 191 220 16,000 100 Climbing Salt Lake Center
Sat 03:36:20 AM 46.2453 -110.5794 283° West 189 217 16,100 50 Climbing Salt Lake Center
Sat 03:37:21 AM 46.2606 -110.6494 288° West 185 213 16,100 -50 Level Salt Lake Center
Sat 03:38:21 AM 46.2750 -110.7244 286° West 191 220 16,000 -100 Descending Salt Lake Center
Sat 03:39:21 AM 46.2906 -110.7994 287° West 191 220 15,900  Descending Salt Lake Center
Sat 03:40:22 AM 46.3058 -110.8714 287° West 192 221 16,000 50 Climbing Salt Lake Center
Sat 03:41:22 AM 46.3236 -110.9444 289° West 192 221 16,000  Level Salt Lake Center
Sat 03:42:22 AM 46.3381 -111.0250 285° West 192 221 16,000 50 Level Salt Lake Center
Sat 03:43:22 AM 46.3514 -111.0931 286° West 188 216 16,100  Climbing Salt Lake Center
Sat 03:44:23 AM 46.3683 -111.1686 288° West 193 222 16,000 -50 Descending Salt Lake Center
Sat 03:45:23 AM 46.3831 -111.2431 286° West 190 219 16,000  Level Salt Lake Center
Sat 03:46:23 AM 46.3992 -111.3189 287° West 193 222 16,000 -50 Level Salt Lake Center
Sat 03:47:24 AM 46.4128 -111.3936 285° West 191 220 15,900  Descending Salt Lake Center
Sat 03:48:24 AM 46.4269 -111.4631 287° West 192 221 16,000 50 Climbing Salt Lake Center
Sat 03:49:24 AM 46.4400 -111.5383 284° West 192 221 16,000 50 Level Salt Lake Center
Sat 03:50:24 AM 46.4547 -111.6125 286° West 192 221 16,100  Climbing Salt Lake Center
Sat 03:51:25 AM 46.4678 -111.6875 284° West 192 221 16,000  Descending Salt Lake Center
Sat 03:52:25 AM 46.4828 -111.7619 286° West 193 222 16,100  Climbing Salt Lake Center
Sat 03:53:25 AM 46.4964 -111.8369 285° West 193 222 16,000 -50 Descending Salt Lake Center
Sat 03:54:25 AM 46.5097 -111.9114 285° West 191 220 16,000  Level Salt Lake Center
Sat 03:55:26 AM 46.5236 -111.9869 285° West 194 223 16,000  Level Salt Lake Center
Sat 03:56:26 AM 46.5408 -112.0614 289° West 195 224 16,000 50 Level Salt Lake Center
Sat 03:57:26 AM 46.5539 -112.1372 284° West 194 223 16,100 50 Climbing Salt Lake Center
Sat 03:58:26 AM 46.5706 -112.2111 288° West 194 223 16,100  Level Salt Lake Center
Sat 03:59:27 AM 46.5833 -112.2858 284° West 192 221 16,100  Level Salt Lake Center
Sat 04:00:27 AM 46.5975 -112.3597 286° West 190 219 16,100  Level Salt Lake Center
Sat 04:01:27 AM 46.6150 -112.4336 289° West 195 224 16,100 -50 Level Salt Lake Center
Sat 04:02:27 AM 46.6269 -112.5100 283° West 193 222 16,000 -50 Descending Salt Lake Center
Sat 04:03:28 AM 46.6422 -112.5867 286° West 197 227 16,000  Level Salt Lake Center
Sat 04:04:28 AM 46.6572 -112.6636 286° West 199 229 16,000  Level Salt Lake Center
Sat 04:05:28 AM 46.6711 -112.7397 285° West 196 226 16,000  Level Salt Lake Center
Sat 04:06:28 AM 46.6861 -112.8169 286° West 199 229 16,000 -248 Level Salt Lake Center
Sat 04:07:29 AM 46.6986 -112.8961 283° West 202 232 15,500 -446 Descending Salt Lake Center
Sat 04:08:29 AM 46.7142 -112.9756 286° West 205 236 15,100 -350 Descending Salt Lake Center
Sat 04:09:29 AM 46.7300 -113.0606 285° West 209 241 14,800 -250 Descending Salt Lake Center
Sat 04:10:29 AM 46.7456 -113.1478 285° West 215 247 14,600 -347 Descending Salt Lake Center
Sat 04:11:30 AM 46.7611 -113.2350 285° West 219 252 14,100 -397 Descending Salt Lake Center
Sat 04:12:30 AM 46.7781 -113.3286 285° West 222 255 13,800 -400 Descending Salt Lake Center
Sat 04:13:30 AM 46.7958 -113.4222 286° West 223 257 13,300 -550 Descending Salt Lake Center
Sat 04:14:30 AM 46.8092 -113.5119 282° West 226 260 12,700 -600 Descending Salt Lake Center
Sat 04:15:30 AM 46.8233 -113.6022 283° West 229 264 12,100 -694 Descending Salt Lake Center
Sat 04:16:31 AM 46.8422 -113.6944 287° West 237 273 11,300 -942 Descending Salt Lake Center
Sat 04:17:31 AM 46.8589 -113.7917 284° West 246 283 10,200 -650 Descending Salt Lake Center
Sat 04:18:31 AM 46.8753 -113.8897 284° West 248 285 10,000 -700 Descending Salt Lake Center
Sat 04:19:31 AM 46.8914 -113.9800 285° West 235 270 8,800 -2,250 Descending Salt Lake Center
Sat 04:20:31 AM 46.8700 -114.0556 248° West 220 253 5,500 -2,678 Descending Salt Lake Center
Sat 04:21:32 AM 46.9056 -114.0739 341° North 150 173 3,400 -2,066 Descending Salt Lake Center

Login

Don't have an account? Register now (free) for customized features, flight alerts, and more!